createdAt,value
2018-03-20T00:02:07.652Z,4.97
2018-03-20T00:04:39.885Z,5.90
2018-03-20T00:07:12.323Z,5.07
2018-03-20T00:09:45.475Z,5.53
2018-03-20T00:12:17.806Z,5.57
2018-03-20T00:14:50.305Z,5.63
2018-03-20T00:17:22.699Z,5.30
2018-03-20T00:19:55.806Z,5.07
2018-03-20T00:22:28.105Z,5.83
2018-03-20T00:25:00.279Z,4.90
2018-03-20T00:27:32.497Z,4.63
2018-03-20T00:30:04.764Z,5.70
2018-03-20T00:32:37.367Z,5.30
2018-03-20T00:35:09.556Z,5.40
2018-03-20T00:37:41.627Z,5.13
2018-03-20T00:40:14.291Z,4.73
2018-03-20T00:42:46.400Z,5.83
2018-03-20T00:45:18.582Z,5.17
2018-03-20T00:47:51.167Z,6.40
2018-03-20T00:50:23.302Z,5.40
2018-03-20T00:52:55.808Z,5.07
2018-03-20T00:55:28.267Z,5.45
2018-03-20T00:58:00.588Z,5.27
2018-03-20T01:00:32.639Z,4.60
2018-03-20T01:03:05.089Z,5.12
2018-03-20T01:05:37.460Z,5.80
2018-03-20T01:08:10.302Z,5.23
2018-03-20T01:10:43.707Z,4.97
2018-03-20T01:13:15.999Z,5.93
2018-03-20T01:15:48.041Z,5.23
2018-03-20T01:18:21.046Z,4.73
2018-03-20T01:20:53.340Z,4.90
2018-03-20T01:23:25.642Z,4.97
2018-03-20T01:25:58.103Z,5.13
2018-03-20T01:28:30.189Z,4.97
2018-03-20T01:31:02.590Z,5.13
2018-03-20T01:33:34.742Z,5.27
2018-03-20T01:36:06.880Z,4.83
2018-03-20T01:38:39.242Z,4.40
2018-03-20T01:41:11.810Z,4.70
2018-03-20T01:43:44.223Z,5.12
2018-03-20T01:46:16.422Z,4.77
2018-03-20T01:48:48.887Z,4.85
2018-03-20T01:51:21.298Z,4.80
2018-03-20T01:53:54.006Z,4.90
2018-03-20T01:56:26.794Z,5.33
2018-03-20T01:58:58.975Z,4.40
2018-03-20T02:01:31.169Z,4.23
2018-03-20T02:04:04.479Z,4.03
2018-03-20T02:06:36.543Z,4.00
2018-03-20T02:09:08.840Z,4.80
2018-03-20T02:11:41.243Z,4.53
2018-03-20T02:14:13.470Z,4.05
2018-03-20T02:16:45.913Z,4.80
2018-03-20T02:19:18.399Z,4.47
2018-03-20T02:21:50.750Z,4.90
2018-03-20T02:24:23.223Z,4.32
2018-03-20T02:26:56.252Z,4.53
2018-03-20T02:29:28.566Z,5.25
2018-03-20T02:32:00.644Z,4.70
2018-03-20T02:34:33.682Z,4.53
2018-03-20T02:37:05.733Z,5.15
2018-03-20T02:39:37.803Z,4.47
2018-03-20T02:42:10.463Z,4.57
2018-03-20T02:44:42.627Z,4.60
2018-03-20T02:47:14.782Z,3.97
2018-03-20T02:49:47.178Z,4.53
2018-03-20T02:52:20.975Z,4.05
2018-03-20T02:54:53.158Z,4.40
2018-03-20T02:57:25.151Z,4.07
2018-03-20T02:59:57.221Z,4.70
2018-03-20T03:02:29.393Z,4.35
2018-03-20T03:05:01.896Z,5.03
2018-03-20T03:07:34.186Z,4.15
2018-03-20T03:10:06.493Z,4.55
2018-03-20T03:12:39.073Z,4.53
2018-03-20T03:15:11.237Z,4.70
2018-03-20T03:17:44.132Z,4.90
2018-03-20T03:20:16.760Z,4.30
2018-03-20T03:22:48.974Z,4.37
2018-03-20T03:25:21.329Z,4.68
2018-03-20T03:27:53.595Z,4.57
2018-03-20T03:30:26.441Z,3.87
2018-03-20T03:32:58.842Z,4.82
2018-03-20T03:35:31.309Z,4.15
2018-03-20T03:38:03.358Z,4.03
2018-03-20T03:40:36.588Z,4.18
2018-03-20T03:43:08.948Z,3.78
2018-03-20T03:45:41.185Z,4.25
2018-03-20T03:48:13.470Z,4.60
2018-03-20T03:50:45.630Z,4.73
2018-03-20T03:53:18.053Z,4.53
2018-03-20T03:55:50.471Z,3.60
2018-03-20T03:58:22.588Z,4.32
2018-03-20T04:00:54.791Z,3.40
2018-03-20T04:03:27.097Z,3.87
2018-03-20T04:05:59.522Z,3.57
2018-03-20T04:08:31.583Z,3.53
2018-03-20T04:11:03.799Z,3.25
2018-03-20T04:13:36.063Z,4.53
2018-03-20T04:16:08.210Z,4.47
2018-03-20T04:18:41.215Z,4.60
2018-03-20T04:21:13.522Z,4.10
2018-03-20T04:23:45.794Z,3.62
2018-03-20T04:27:43.031Z,3.85
2018-03-20T04:30:15.284Z,3.95
2018-03-20T04:32:47.561Z,4.45
2018-03-20T04:35:20.221Z,3.97
2018-03-20T04:37:52.744Z,4.32
2018-03-20T04:40:25.305Z,4.07
2018-03-20T04:42:58.003Z,4.47
2018-03-20T04:45:30.246Z,5.03
2018-03-20T04:48:02.639Z,4.00
2018-03-20T04:50:35.243Z,3.50
2018-03-20T04:53:08.578Z,4.37
2018-03-20T04:55:40.898Z,4.68
2018-03-20T04:58:13.168Z,4.22
2018-03-20T05:00:45.836Z,4.62
2018-03-20T05:03:18.535Z,5.10
2018-03-20T05:05:51.832Z,4.37
2018-03-20T05:08:24.230Z,3.22
2018-03-20T05:10:56.959Z,4.05
2018-03-20T05:13:30.095Z,4.97
2018-03-20T05:16:02.405Z,4.55
2018-03-20T05:18:34.947Z,4.43
2018-03-20T05:21:07.907Z,4.60
2018-03-20T05:23:40.280Z,4.35
2018-03-20T05:26:12.683Z,4.57
2018-03-20T05:28:44.892Z,4.90
2018-03-20T05:31:17.992Z,4.32
2018-03-20T05:33:50.433Z,4.37
2018-03-20T05:36:23.007Z,5.60
2018-03-20T05:38:55.278Z,5.05
2018-03-20T05:41:27.681Z,5.20
2018-03-20T05:44:00.148Z,4.20
2018-03-20T05:46:32.776Z,4.82
2018-03-20T05:49:05.120Z,4.57
2018-03-20T05:51:38.267Z,4.32
2018-03-20T05:54:10.852Z,4.05
2018-03-20T05:56:43.312Z,4.20
2018-03-20T05:59:15.736Z,3.90
2018-03-20T06:01:49.389Z,4.68
2018-03-20T06:04:21.903Z,5.00
2018-03-20T06:06:55.218Z,5.00
2018-03-20T06:09:27.614Z,5.00
2018-03-20T06:12:00.224Z,5.05
2018-03-20T06:14:32.996Z,5.47
2018-03-20T06:17:06.247Z,5.62
2018-03-20T06:19:38.730Z,5.45
2018-03-20T06:22:11.295Z,4.83
2018-03-20T06:24:43.798Z,5.60
2018-03-20T06:27:16.390Z,4.73
2018-03-20T06:29:48.680Z,4.83
2018-03-20T06:32:21.145Z,5.57
2018-03-20T06:34:53.626Z,4.90
2018-03-20T06:37:26.712Z,4.50
2018-03-20T06:39:59.280Z,4.77
2018-03-20T06:42:31.542Z,4.97
2018-03-20T06:45:05.426Z,5.33
2018-03-20T06:47:37.793Z,4.77
2018-03-20T06:50:10.455Z,4.93
2018-03-20T06:52:44.417Z,5.23
2018-03-20T06:55:16.636Z,5.20
2018-03-20T06:57:48.964Z,5.67
2018-03-20T07:00:21.511Z,5.10
2018-03-20T07:02:53.881Z,6.10
2018-03-20T07:05:26.222Z,5.33
2018-03-20T07:07:58.717Z,5.43
2018-03-20T07:10:30.808Z,5.03
2018-03-20T07:13:03.795Z,4.83
2018-03-20T07:15:36.279Z,4.67
2018-03-20T07:18:08.585Z,5.33
2018-03-20T07:20:41.094Z,5.17
2018-03-20T07:23:13.515Z,4.80
2018-03-20T07:25:45.921Z,5.33
2018-03-20T07:28:18.202Z,4.67
2018-03-20T07:30:51.277Z,5.30
2018-03-20T07:33:23.656Z,5.33
2018-03-20T07:35:55.980Z,4.73
2018-03-20T07:38:30.096Z,6.03
2018-03-20T07:41:02.576Z,5.63
2018-03-20T07:43:34.960Z,5.57
2018-03-20T07:46:08.391Z,5.63
2018-03-20T07:48:40.694Z,5.00
2018-03-20T07:51:13.021Z,5.43
2018-03-20T07:53:45.747Z,5.13
2018-03-20T07:56:18.136Z,5.40
2018-03-20T07:58:50.496Z,5.53
2018-03-20T08:01:23.488Z,5.27
2018-03-20T08:03:56.576Z,5.50
2018-03-20T08:06:29.089Z,5.43
2018-03-20T08:09:04.701Z,5.33
2018-03-20T08:11:37.224Z,5.60
2018-03-20T08:14:10.044Z,4.97
2018-03-20T08:16:42.735Z,4.97
2018-03-20T08:19:18.592Z,4.60
2018-03-20T08:21:51.188Z,5.07
2018-03-20T08:24:23.915Z,5.00
2018-03-20T08:26:56.900Z,5.33
2018-03-20T08:29:29.432Z,4.50
2018-03-20T08:32:02.206Z,4.30
2018-03-20T08:34:34.597Z,4.17
2018-03-20T08:37:07.177Z,4.10
2018-03-20T08:39:42.622Z,4.37
2018-03-20T08:42:15.200Z,4.20
2018-03-20T08:44:54.591Z,3.43
2018-03-20T08:47:27.287Z,3.93
2018-03-20T08:50:00.467Z,4.20
2018-03-20T08:52:33.863Z,3.50
2018-03-20T08:55:07.293Z,3.30
2018-03-20T08:57:39.663Z,4.50
2018-03-20T09:00:12.238Z,3.60
2018-03-20T09:02:45.767Z,4.10
2018-03-20T09:05:18.378Z,3.80
2018-03-20T09:07:50.692Z,4.53
2018-03-20T09:10:35.890Z,3.80
2018-03-20T09:13:08.380Z,4.53
2018-03-20T09:15:47.692Z,3.53
2018-03-20T09:18:20.131Z,3.73
2018-03-20T09:20:52.640Z,3.70
2018-03-20T09:23:24.879Z,4.10
2018-03-20T09:25:58.575Z,4.20
2018-03-20T09:28:31.120Z,3.83
2018-03-20T09:31:03.521Z,3.63
2018-03-20T09:33:36.106Z,4.13
2018-03-20T09:36:08.216Z,3.60
2018-03-20T09:38:40.847Z,3.40
2018-03-20T09:41:13.372Z,4.20
2018-03-20T09:43:46.641Z,4.07
2018-03-20T09:46:19.071Z,4.20
2018-03-20T09:48:51.566Z,4.47
2018-03-20T09:51:24.020Z,4.17
2018-03-20T09:53:56.399Z,4.37
2018-03-20T09:56:32.079Z,4.53
2018-03-20T09:59:11.572Z,3.37
2018-03-20T10:01:44.059Z,4.20
2018-03-20T10:04:16.878Z,4.20
2018-03-20T10:06:49.239Z,4.20
2018-03-20T10:09:21.918Z,4.07
2018-03-20T10:11:54.922Z,4.50
2018-03-20T10:14:27.448Z,3.90
2018-03-20T10:17:00.668Z,3.90
2018-03-20T10:19:33.611Z,4.53
2018-03-20T10:22:06.163Z,4.10
2018-03-20T10:24:38.474Z,4.23
2018-03-20T10:27:14.858Z,4.80
2018-03-20T10:29:47.332Z,4.23
2018-03-20T10:32:19.703Z,4.50
2018-03-20T10:34:55.099Z,4.20
2018-03-20T10:37:27.489Z,4.33
2018-03-20T10:39:59.990Z,4.20
2018-03-20T10:42:34.106Z,4.30
2018-03-20T10:45:06.863Z,5.40
2018-03-20T10:47:40.023Z,4.90
2018-03-20T10:50:15.874Z,4.20
2018-03-20T10:52:48.372Z,5.00
2018-03-20T10:55:21.551Z,4.60
2018-03-20T10:57:57.442Z,4.20
2018-03-20T11:00:35.282Z,4.57
2018-03-20T11:03:08.938Z,3.80
2018-03-20T11:05:43.343Z,4.40
2018-03-20T11:08:15.726Z,4.90
2018-03-20T11:10:48.254Z,4.20
2018-03-20T11:13:21.641Z,4.17
2018-03-20T11:15:54.414Z,4.50
2018-03-20T11:18:26.884Z,4.87
2018-03-20T11:21:02.164Z,5.30
2018-03-20T11:23:35.893Z,5.17
2018-03-20T11:26:08.446Z,5.20
2018-03-20T11:28:43.739Z,4.97
2018-03-20T11:31:16.295Z,4.80
2018-03-20T11:33:49.446Z,4.80
2018-03-20T11:36:25.031Z,5.10
2018-03-20T11:38:58.217Z,5.17
2018-03-20T11:41:30.826Z,6.70
2018-03-20T11:44:03.331Z,5.13
2018-03-20T11:46:36.555Z,5.87
2018-03-20T11:49:09.169Z,5.47
2018-03-20T11:51:45.394Z,5.17
2018-03-20T11:54:18.768Z,5.40
2018-03-20T11:56:51.272Z,5.43
2018-03-20T11:59:25.101Z,5.77
2018-03-20T12:01:57.834Z,5.87
2018-03-20T12:04:30.615Z,5.63
2018-03-20T12:07:05.894Z,5.53
2018-03-20T12:09:49.433Z,5.23
2018-03-20T12:12:22.052Z,5.50
2018-03-20T12:14:55.215Z,4.97
2018-03-20T12:17:28.762Z,6.40
2018-03-20T12:20:01.452Z,5.80
2018-03-20T12:22:34.964Z,5.73
2018-03-20T12:25:08.221Z,5.83
2018-03-20T12:27:40.692Z,5.60
2018-03-20T12:30:13.056Z,5.43
2018-03-20T12:32:45.691Z,5.13
2018-03-20T12:35:18.512Z,5.30
2018-03-20T12:37:51.326Z,5.57
2018-03-20T12:40:24.196Z,5.93
2018-03-20T12:42:57.503Z,5.93
2018-03-20T12:45:32.834Z,6.20
2018-03-20T12:48:05.607Z,6.27
2018-03-20T12:50:38.247Z,5.73
2018-03-20T12:53:13.033Z,6.10
2018-03-20T12:55:45.553Z,5.87
2018-03-20T12:58:18.033Z,5.27
2018-03-20T13:00:50.465Z,5.93
2018-03-20T13:03:23.428Z,5.43
2018-03-20T13:05:55.879Z,5.87
2018-03-20T13:08:33.181Z,6.03
2018-03-20T13:11:06.758Z,6.10
2018-03-20T13:13:39.940Z,6.07
2018-03-20T13:16:16.458Z,6.23
2018-03-20T13:18:49.237Z,6.20
2018-03-20T13:21:21.794Z,5.60
2018-03-20T13:23:56.883Z,6.20
2018-03-20T13:26:29.399Z,7.23
2018-03-20T13:29:02.330Z,6.27
2018-03-20T13:31:35.127Z,6.27
2018-03-20T13:34:08.008Z,6.40
2018-03-20T13:36:40.936Z,7.17
2018-03-20T13:39:14.724Z,6.30
2018-03-20T13:41:51.962Z,6.43
2018-03-20T13:44:24.929Z,6.17
2018-03-20T13:46:57.625Z,6.33
2018-03-20T13:49:30.649Z,7.10
2018-03-20T13:52:03.193Z,6.27
2018-03-20T13:54:35.885Z,6.77
2018-03-20T13:57:10.272Z,6.33
2018-03-20T13:59:47.356Z,11.27
2018-03-20T14:02:23.234Z,5.93
2018-03-20T14:04:56.003Z,5.60
2018-03-20T14:07:29.482Z,6.30
2018-03-20T14:10:01.893Z,5.80
2018-03-20T14:12:37.093Z,6.03
2018-03-20T14:15:09.606Z,5.87
2018-03-20T14:17:42.172Z,6.60
2018-03-20T14:20:15.881Z,7.17
2018-03-20T14:22:48.518Z,6.27
2018-03-20T14:25:22.662Z,11.10
2018-03-20T14:27:58.315Z,5.93
2018-03-20T14:30:31.203Z,5.60
2018-03-20T14:33:04.941Z,4.70
2018-03-20T14:35:37.951Z,5.60
2018-03-20T14:38:10.569Z,5.53
2018-03-20T14:40:43.260Z,6.50
2018-03-20T14:43:21.950Z,5.20
2018-03-20T14:45:55.224Z,6.13
2018-03-20T14:48:28.846Z,5.47
2018-03-20T14:51:09.098Z,5.30
2018-03-20T14:53:42.566Z,5.47
2018-03-20T14:56:15.325Z,6.07
2018-03-20T14:58:47.998Z,6.37
2018-03-20T15:01:25.338Z,7.33
2018-03-20T15:03:58.074Z,7.10
2018-03-20T15:06:30.722Z,7.60
2018-03-20T15:09:08.764Z,7.93
2018-03-20T15:11:44.555Z,9.67
2018-03-20T15:14:30.886Z,8.10
2018-03-20T15:17:10.213Z,8.20
2018-03-20T15:19:43.596Z,8.13
2018-03-20T15:22:17.871Z,8.53
2018-03-20T15:24:53.215Z,10.30
2018-03-20T15:27:25.664Z,10.33
2018-03-20T15:29:59.203Z,11.37
2018-03-20T15:32:31.742Z,10.43
2018-03-20T15:35:05.631Z,10.27
2018-03-20T15:37:38.442Z,11.20
2018-03-20T15:40:10.879Z,11.80
2018-03-20T15:42:43.449Z,10.97
2018-03-20T15:45:15.963Z,10.67
2018-03-20T15:47:49.204Z,9.43
2018-03-20T15:50:22.567Z,11.53
2018-03-20T15:52:57.013Z,11.13
2018-03-20T15:55:29.497Z,10.83
2018-03-20T15:58:02.034Z,10.73
2018-03-20T16:00:37.327Z,10.30
2018-03-20T16:03:09.906Z,10.90
2018-03-20T16:05:42.518Z,10.60
2018-03-20T16:08:16.003Z,11.47
2018-03-20T16:10:51.588Z,10.37
2018-03-20T16:13:24.205Z,11.23
2018-03-20T16:15:57.021Z,11.63
2018-03-20T16:18:29.674Z,10.47
2018-03-20T16:21:02.297Z,11.13
2018-03-20T16:23:36.588Z,10.60
2018-03-20T16:26:09.790Z,9.37
2018-03-20T16:28:42.335Z,8.67
2018-03-20T16:31:16.843Z,7.07
2018-03-20T16:33:49.478Z,8.70
2018-03-20T16:36:22.807Z,6.47
2018-03-20T16:38:59.150Z,6.60
2018-03-20T16:41:32.536Z,6.23
2018-03-20T16:44:05.068Z,6.67
2018-03-20T16:46:37.553Z,6.80
2018-03-20T16:49:10.095Z,7.53
2018-03-20T16:51:42.886Z,7.10
2018-03-20T16:54:16.243Z,8.47
2018-03-20T16:56:49.041Z,10.10
2018-03-20T16:59:22.165Z,9.47
2018-03-20T17:01:55.350Z,10.53
2018-03-20T17:04:28.082Z,11.07
2018-03-20T17:07:00.756Z,10.50
2018-03-20T17:09:33.990Z,10.27
2018-03-20T17:12:07.174Z,9.63
2018-03-20T17:14:39.818Z,9.47
2018-03-20T17:17:12.733Z,8.80
2018-03-20T17:19:46.507Z,8.83
2018-03-20T17:22:19.338Z,8.67
2018-03-20T17:24:52.843Z,8.47
2018-03-20T17:27:25.843Z,8.50
2018-03-20T17:29:58.428Z,8.80
2018-03-20T17:32:31.101Z,8.77
2018-03-20T17:35:05.797Z,8.30
2018-03-20T17:37:39.162Z,7.73
2018-03-20T17:40:11.904Z,7.43
2018-03-20T17:42:46.654Z,7.17
2018-03-20T17:45:19.173Z,8.00
2018-03-20T17:47:51.533Z,7.00
2018-03-20T17:50:25.507Z,6.33
2018-03-20T17:52:58.999Z,6.73
2018-03-20T17:55:31.530Z,6.63
2018-03-20T17:58:07.297Z,7.00
2018-03-20T18:00:40.216Z,7.73
2018-03-20T18:03:12.546Z,7.37
2018-03-20T18:05:46.565Z,6.37
2018-03-20T18:08:19.083Z,7.73
2018-03-20T18:10:51.803Z,6.60
2018-03-20T18:13:26.508Z,6.93
2018-03-20T18:15:59.313Z,6.93
2018-03-20T18:18:32.335Z,7.07
2018-03-20T18:21:05.043Z,7.33
2018-03-20T18:23:37.373Z,6.80
2018-03-20T18:26:10.047Z,6.03
2018-03-20T18:28:43.643Z,6.27
2018-03-20T18:31:16.313Z,6.17
2018-03-20T18:33:49.830Z,6.43
2018-03-20T18:36:22.377Z,6.53
2018-03-20T18:38:55.383Z,6.43
2018-03-20T18:41:28.334Z,6.20
2018-03-20T18:44:00.813Z,6.33
2018-03-20T18:46:33.380Z,6.73
2018-03-20T18:49:07.200Z,6.10
2018-03-20T18:51:39.612Z,5.60
2018-03-20T18:54:13.913Z,6.60
2018-03-20T18:56:47.514Z,6.67
2018-03-20T18:59:19.905Z,6.40
2018-03-20T19:01:53.418Z,6.07
2018-03-20T19:04:26.121Z,7.00
2018-03-20T19:06:59.531Z,6.67
2018-03-20T19:09:37.932Z,5.90
2018-03-20T19:12:10.718Z,6.80
2018-03-20T19:14:43.853Z,6.20
2018-03-20T19:17:16.663Z,6.23
2018-03-20T19:19:49.375Z,6.13
2018-03-20T19:22:22.687Z,6.50
2018-03-20T19:24:58.051Z,6.30
2018-03-20T19:27:30.629Z,6.60
2018-03-20T19:30:02.987Z,5.90
2018-03-20T19:32:37.342Z,6.40
2018-03-20T19:35:09.980Z,5.97
2018-03-20T19:37:42.515Z,6.47
2018-03-20T19:40:17.194Z,5.77
2018-03-20T19:42:50.689Z,6.63
2018-03-20T19:45:24.012Z,5.33
2018-03-20T19:47:56.700Z,5.70
2018-03-20T19:50:29.283Z,5.60
2018-03-20T19:53:04.283Z,5.10
2018-03-20T19:55:36.926Z,7.60
2018-03-20T19:58:09.452Z,7.20
2018-03-20T20:00:41.907Z,4.90
2018-03-20T20:03:15.582Z,5.33
2018-03-20T20:05:48.906Z,4.53
2018-03-20T20:08:22.979Z,5.00
2018-03-20T20:10:56.571Z,4.20
2018-03-20T20:13:28.968Z,4.50
2018-03-20T20:16:01.525Z,4.90
2018-03-20T20:18:34.158Z,4.77
2018-03-20T20:21:07.272Z,5.10
2018-03-20T20:23:40.756Z,4.43
2018-03-20T20:26:13.267Z,3.70
2018-03-20T20:28:46.513Z,4.17
2018-03-20T20:31:19.906Z,3.50
2018-03-20T20:33:52.275Z,3.50
2018-03-20T20:36:24.681Z,4.37
2018-03-20T20:38:57.589Z,3.83
2018-03-20T20:41:29.960Z,4.03
2018-03-20T20:44:02.671Z,3.30
2018-03-20T20:46:35.020Z,3.60
2018-03-20T20:49:07.557Z,3.60
2018-03-20T20:51:40.023Z,3.47
2018-03-20T20:54:13.518Z,4.00
2018-03-20T20:56:46.585Z,3.87
2018-03-20T20:59:19.335Z,4.27
2018-03-20T21:01:51.882Z,3.93
2018-03-20T21:04:24.395Z,3.77
2018-03-20T21:06:56.743Z,4.40
2018-03-20T21:09:30.138Z,4.07
2018-03-20T21:12:02.670Z,4.30
2018-03-20T21:14:35.074Z,4.13
2018-03-20T21:17:07.480Z,4.63
2018-03-20T21:19:40.579Z,4.40
2018-03-20T21:22:13.908Z,4.83
2018-03-20T21:24:47.183Z,4.47
2018-03-20T21:27:19.490Z,4.30
2018-03-20T21:29:51.803Z,6.80
2018-03-20T21:32:24.685Z,4.03
2018-03-20T21:34:56.995Z,4.00
2018-03-20T21:37:29.358Z,4.87
2018-03-20T21:40:03.211Z,4.70
2018-03-20T21:42:36.244Z,4.23
2018-03-20T21:45:09.169Z,4.10
2018-03-20T21:47:42.294Z,3.77
2018-03-20T21:50:14.765Z,5.00
2018-03-20T21:52:47.381Z,4.47
2018-03-20T21:55:19.923Z,4.30
2018-03-20T21:57:52.243Z,4.23
2018-03-20T22:00:24.589Z,3.83
2018-03-20T22:02:58.048Z,3.67
2018-03-20T22:05:30.800Z,4.07
2018-03-20T22:08:03.007Z,3.80
2018-03-20T22:10:36.285Z,3.40
2018-03-20T22:13:09.047Z,3.37
2018-03-20T22:15:41.303Z,3.07
2018-03-20T22:18:13.617Z,2.93
2018-03-20T22:20:46.065Z,2.90
2018-03-20T22:23:19.013Z,3.23
2018-03-20T22:25:53.278Z,3.13
2018-03-20T22:28:25.395Z,2.90
2018-03-20T22:30:58.479Z,3.20
2018-03-20T22:33:31.204Z,3.30
2018-03-20T22:36:03.612Z,2.40
2018-03-20T22:38:35.841Z,3.23
2018-03-20T22:41:08.385Z,3.10
2018-03-20T22:43:40.656Z,3.20
2018-03-20T22:46:14.096Z,3.47
2018-03-20T22:48:46.242Z,2.67
2018-03-20T22:51:18.582Z,3.47
2018-03-20T22:53:51.581Z,3.77
2018-03-20T22:56:24.035Z,3.57
2018-03-20T22:58:56.525Z,3.47
2018-03-20T23:01:28.723Z,3.10
2018-03-20T23:04:01.287Z,3.60
2018-03-20T23:06:33.517Z,3.03
2018-03-20T23:09:06.407Z,2.83
2018-03-20T23:11:39.925Z,2.80
2018-03-20T23:14:13.066Z,2.60
2018-03-20T23:16:45.277Z,3.30
2018-03-20T23:19:17.735Z,2.50
2018-03-20T23:21:49.819Z,2.77
2018-03-20T23:24:22.042Z,2.07
2018-03-20T23:26:54.430Z,3.10
2018-03-20T23:29:26.692Z,3.00
2018-03-20T23:31:59.002Z,3.07
2018-03-20T23:34:31.587Z,2.73
2018-03-20T23:37:03.847Z,2.73
2018-03-20T23:39:36.101Z,2.93
2018-03-20T23:42:08.519Z,2.53
2018-03-20T23:44:40.899Z,2.67
2018-03-20T23:47:14.040Z,2.30
2018-03-20T23:49:47.202Z,2.93
2018-03-20T23:52:19.426Z,2.77
2018-03-20T23:54:51.694Z,2.50
2018-03-20T23:57:24.379Z,3.03
2018-03-20T23:59:56.660Z,2.83
